CheckWX is a tool to help pilots better visualize weather data.  It is not intended as a substitute for an official pre-flight weather briefing.

15:11:18 UTC

KENV TAF
Wendover Airport
Wendover, Utah, USA
KENV 231120Z 2312/2412 VRB04KT P6SM SCT060 BKN120 FM232000 10006KT P6SM VCSH SCT050 BKN080 FM240300 33007KT P6SM VCSH SCT050 BKN080

Mar-23@
12:00 UTC

Mar-23 @ 12:00 UTC

Mar-23@
20:00 UTC

Mar-23 @ 20:00 UTC

KENV 231120Z 2312/2412 VRB04KT P6SM SCT060 BKN120
Wind
  • Variable at 4 KTS
Cloud Levels
  • Scattered at 6,000' AGL
  • Broken at 12,000' AGL

Mar-23@
20:00 UTC

Mar-23 @ 20:00 UTC

Mar-24@
03:00 UTC

Mar-24 @ 03:00 UTC

FM232000 10006KT P6SM VCSH SCT050 BKN080

From

From Standard forecast or significant change

Wind
  • 100° at 6 KTS
Cloud Levels
  • Scattered at 5,000' AGL
  • Broken at 8,000' AGL

Mar-24@
03:00 UTC

Mar-24 @ 03:00 UTC

Mar-24@
12:00 UTC

Mar-24 @ 12:00 UTC

FM240300 33007KT P6SM VCSH SCT050 BKN080

From

From Standard forecast or significant change

Wind
  • 330° at 7 KTS
Cloud Levels
  • Scattered at 5,000' AGL
  • Broken at 8,000' AGL